Station: Gold Coast Seaway  

  Atmospheric Gas Attenuation - ITU Rec 676-11   ----------------- dB/100km -----------------
Date Time Temp RH % AH g/m3 Dew Point Wind Direction Speed kph Gust kph Barometer mB Rainfall Since 9am 24GHz 47GHz 76GHz 122GHz 134GHz 241GHz
08/05 12:30 20.2 39 6.82 5.8 13 17 1018.5 0 15.5 21.7 30.6 79.9 70.2 240.2
08/05 12:20 19.9 36 6.18 4.4 9 11 1018.7 0 14.2 20.9 28.5 74.4 63.2 215.7
08/05 12:10 20.7 37 6.66 5.5 11 13 1019 0 15.2 21.4 29.9 78.0 67.9 232.5
08/05 12:00 20.8 35 6.34 4.8 13 19 1019.1 0 14.5 20.9 28.8 75.0 64.3 219.7
08/05 11:50 20.9 42 7.65 7.5 13 17 1019.1 0 17.3 22.8 33.3 87.0 79.1 271.7
08/05 11:40 20.2 38 6.64 5.4 13 15 1019.5 0 15.2 21.5 30.0 78.4 68.2 233.2
08/05 11:30 20.2 36 6.29 4.7 9 13 1019.7 0 14.4 21.0 28.8 75.2 64.2 219.5
08/05 11:20 20.4 37 6.54 5.2 9 11 1019.8 0 14.9 21.3 29.6 77.3 66.9 228.8
08/05 11:10 20.1 35 6.08 4.2 11 13 1019.8 0 14.0 20.8 28.2 73.4 62.0 211.5
08/05 11:00 20.2 37 6.47 5.1 9 13 1019.9 0 14.8 21.3 29.5 76.8 66.3 226.6
08/05 10:50 19.5 37 6.21 4.4 7 11 1020.1 0 14.3 21.1 28.8 75.1 63.9 218.2
08/05 10:40 19.5 33 5.54 2.8 11 13 1020.1 0 12.9 20.2 26.6 69.1 56.5 192.1
08/05 10:30 19.9 34 5.84 3.6 7 13 1020.4 0 13.5 20.5 27.5 71.5 59.5 202.8
08/05 10:20 19.7 35 5.94 3.8 7 9 1020.4 0 13.7 20.7 27.9 72.5 60.8 207.2
08/05 10:10 18.9 28 4.54 0 6 6 1020.5 0 10.8 19.0 23.5 60.9 46.1 155.6
08/05 10:00 18.9 27 4.37 -0.5 2 7 1020.6 0 10.5 18.8 23.0 59.5 44.3 149.2
08/05 09:50 19.1 27 4.43 -0.3 0 6 1020.6 0 10.6 18.8 23.1 59.8 44.9 151.1
08/05 09:40 19.2 32 5.28 2.1 4 6 1020.7 0 12.4 19.9 25.8 67.1 53.9 182.9
08/05 09:30 18.2 30 4.66 0.4 4 9 1020.7 0 11.1 19.3 24.1 62.5 47.8 161.4
08/05 09:20 17.4 29 4.3 -0.8 6 7 1020.6 0 10.4 19.0 23.2 59.9 44.4 149.3
08/05 09:10 17.2 32 4.69 0.4 9 9 1020.7 0 11.2 19.5 24.5 63.5 48.7 164.5
08/05 09:00 16.7 31 4.41 -0.5 13 19 1020.7 0 10.6 19.3 23.7 61.4 46.0 154.8
08/05 08:50 16.7 36 5.12 1.6 11 13 1020.6 0 12.1 20.2 26.1 67.7 53.8 182.2
08/05 08:40 16.6 40 5.65 3 9 13 1020.8 0 13.2 21.0 27.9 72.7 59.8 203.5
08/05 08:30 15.8 35 4.71 0.4 11 15 1020.4 0 11.3 19.9 25.0 64.7 49.8 168.1
08/05 08:20 15.9 36 4.88 0.9 11 15 1020.4 0 11.6 20.1 25.5 66.2 51.6 174.5
08/05 08:10 15.7 42 5.62 2.8 9 11 1020.2 0 13.2 21.1 28.1 73.1 60.1 204.5
08/05 08:00 15.3 46 6.01 3.8 7 13 1020.3 0 14.0 21.8 29.6 77.2 65.0 221.5
08/05 07:50 14.8 43 5.45 2.4 7 9 1020.2 0 12.9 21.1 27.8 72.4 58.8 199.8
08/05 07:40 14.3 44 5.41 2.2 11 13 1020.1 0 12.8 21.2 27.8 72.4 58.7 199.4
08/05 07:30 13.8 56 6.67 5.2 7 13 1020 0 15.5 23.1 32.6 85.1 74.2 253.8
08/05 07:20 13.3 61 7.05 5.9 7 9 1019.9 0 16.3 23.8 34.2 89.5 79.5 272.0
08/05 07:09 12.7 67 7.46 6.7 0 0 1019.8 0 17.2 24.6 36.1 94.4 85.3 292.4
08/05 07:00 12.4 68 7.43 6.7 7 9 1019.8 0 17.1 24.7 36.1 94.5 85.3 292.2
08/05 06:50 12 71 7.57 6.9 6 7 1019.8 0 17.5 25.0 36.8 96.4 87.5 300.1
08/05 06:40 11.7 71 7.43 6.6 7 9 1019.6 0 17.2 24.8 36.4 95.3 86.0 294.7
08/05 06:30 11.1 68 6.85 5.4 7 9 1019.4 0 16.0 24.1 34.4 89.9 79.1 270.5
08/05 06:20 11 64 6.41 4.5 7 7 1019.3 0 15.0 23.4 32.7 85.4 73.6 251.1
08/05 06:10 11.3 56 5.71 2.9 6 7 1019.1 0 13.5 22.3 30.0 78.0 64.6 219.5
08/05 06:00 11.7 53 5.54 2.5 7 9 1019 0 13.2 21.9 29.2 76.0 62.2 211.2
08/05 05:50 12.7 39 4.34 -0.9 7 9 1019 0 10.6 20.0 24.6 63.7 47.4 159.4
08/05 05:40 12.8 39 4.37 -0.8 9 9 1018.9 0 10.6 20.0 24.7 63.9 47.7 160.4
08/05 05:30 13 40 4.54 -0.3 9 13 1018.7 0 11.0 20.2 25.2 65.3 49.5 166.8
08/05 05:20 13.1 39 4.45 -0.5 9 11 1018.6 0 10.8 20.0 24.8 64.4 48.4 163.0
08/05 05:10 13.5 45 5.26 1.8 11 13 1018.3 0 12.5 21.1 27.5 71.6 57.5 194.8
08/05 05:00 13 45 5.1 1.4 9 17 1018.2 0 12.2 20.9 27.1 70.5 55.9 189.4
08/05 04:50 13.1 48 5.48 2.4 9 13 1018.2 0 13.0 21.5 28.4 74.0 60.3 204.9
08/05 04:40 13 48 5.44 2.3 7 9 1018.1 0 12.9 21.4 28.3 73.7 59.9 203.5
08/05 04:30 12.9 50 5.64 2.7 7 13 1018 0 13.3 21.7 29.1 75.7 62.4 212.1
08/05 04:20 12.9 50 5.64 2.7 6 7 1017.9 0 13.3 21.7 29.1 75.7 62.4 212.0
08/05 04:10 12.7 55 6.12 3.9 9 11 1017.7 0 14.4 22.5 30.9 80.6 68.3 232.9
08/05 04:00 13 59 6.69 5.2 7 13 1017.7 0 15.6 23.3 32.9 86.0 75.1 256.7
08/05 03:50 13.5 58 6.78 5.4 7 9 1017.5 0 15.7 23.3 33.0 86.3 75.7 259.0
08/05 03:40 13.8 58 6.91 5.7 9 9 1017.4 0 16.0 23.4 33.4 87.3 77.0 263.6
08/05 03:30 13.7 61 7.22 6.3 9 13 1017.3 0 16.6 23.9 34.6 90.5 81.0 277.5
08/05 03:20 13.1 66 7.53 6.9 7 9 1017.4 0 17.3 24.5 36.1 94.4 85.6 293.5
08/05 03:10 12.5 70 7.7 7.2 7 9 1017.3 0 17.7 25.0 37.0 96.9 88.5 303.5
08/05 03:00 12.5 72 7.92 7.6 7 11 1017.2 0 18.2 25.3 37.9 99.3 91.3 313.6
08/05 02:50 12.3 72 7.82 7.4 9 11 1017.1 0 18.0 25.2 37.6 98.4 90.3 309.7
08/05 02:40 12.5 71 7.81 7.4 4 6 1017.2 0 18.0 25.1 37.4 98.1 89.9 308.5
08/05 02:30 12.6 70 7.74 7.3 7 9 1017.3 0 17.8 25.0 37.1 97.2 88.9 304.9
08/05 02:20 12.6 71 7.86 7.5 7 9 1017.2 0 18.1 25.2 37.6 98.5 90.4 310.4
08/05 02:10 12.6 70 7.74 7.3 7 9 1017.3 0 17.8 25.0 37.1 97.2 88.9 304.9
08/05 02:00 12.9 69 7.78 7.4 7 9 1017.2 0 17.9 25.0 37.1 97.3 89.0 305.6
08/05 01:50 12.7 69 7.68 7.2 7 9 1017 0 17.7 24.9 36.8 96.5 88.0 301.7
08/05 01:40 12.9 66 7.44 6.7 0 0 1017.1 0 17.2 24.4 35.8 93.7 84.6 290.2
08/05 01:30 13.4 66 7.67 7.2 6 7 1017 0 17.6 24.7 36.5 95.5 87.0 298.6
08/05 01:20 13.3 66 7.63 7.1 6 6 1016.9 0 17.5 24.6 36.4 95.2 86.6 297.2
08/05 01:10 14.1 62 7.52 6.9 0 6 1016.9 0 17.3 24.2 35.6 93.1 84.4 289.3
08/05 01:00 14.2 60 7.33 6.6 7 11 1016.8 0 16.9 23.9 34.8 91.0 81.8 280.5
08/05 00:50 14.7 57 7.18 6.3 6 6 1017 0 16.5 23.6 34.0 89.0 79.5 272.3
08/05 00:40 14.6 58 7.26 6.4 11 11 1016.9 0 16.7 23.7 34.4 89.9 80.6 276.1
08/05 00:30 15.4 54 7.09 6.2 7 11 1016.9 0 16.3 23.2 33.4 87.3 77.7 266.0
08/05 00:20 16.1 50 6.85 5.7 7 7 1016.9 0 15.8 22.7 32.2 84.2 74.1 253.5
08/05 00:09 16.8 48 6.86 5.7 7 9 1016.8 0 15.8 22.5 32.0 83.6 73.6 251.8
08/05 00:00 16.9 47 6.76 5.5 9 17 1016.7 0 15.5 22.4 31.6 82.5 72.3 247.3
07/05 23:50 17.4 45 6.67 5.4 11 13 1016.8 0 15.3 22.1 31.1 81.1 70.8 242.0
07/05 23:40 17.8 43 6.53 5.1 11 15 1016.6 0 15.0 21.8 30.4 79.4 68.8 235.1
07/05 23:30 17.8 43 6.53 5.1 17 26 1016.7 0 15.0 21.8 30.4 79.4 68.8 235.1
07/05 23:20 18.3 41 6.41 4.8 17 20 1016.7 0 14.8 21.5 29.8 77.8 67.0 228.8
07/05 23:10 18.6 38 6.05 4 20 26 1016.7 0 14.0 21.0 28.5 74.2 62.6 213.6
07/05 23:00 18.9 38 6.16 4.3 19 32 1016.8 0 14.2 21.1 28.8 74.9 63.7 217.2
07/05 22:50 19.2 36 5.94 3.8 22 32 1016.5 0 13.7 20.7 27.9 72.7 60.9 207.7
07/05 22:40 19.5 35 5.87 3.6 24 32 1016.5 0 13.6 20.5 27.6 71.8 59.9 204.3
07/05 22:30 19.5 36 6.04 4 22 33 1016.4 0 13.9 20.7 28.1 73.3 61.8 210.9
07/05 22:20 19.7 36 6.11 4.2 20 28 1016.4 0 14.1 20.8 28.3 73.7 62.4 213.1
07/05 22:10 19.8 36 6.15 4.3 26 33 1016.4 0 14.2 20.8 28.4 74.0 62.8 214.4
07/05 22:00 20 35 6.05 4.1 17 28 1016.5 0 13.9 20.6 28.0 72.9 61.6 210.0
07/05 21:50 20.2 34 5.94 3.9 17 20 1016.4 0 13.7 20.4 27.6 71.8 60.2 205.2
07/05 21:39 20.5 32 5.69 3.3 22 26 1016.3 0 13.2 20.0 26.6 69.3 57.2 194.9
07/05 21:30 20.7 31 5.58 3 20 32 1016.3 0 12.9 19.9 26.2 68.2 55.9 190.3
07/05 21:20 20.4 33 5.84 3.6 17 20 1016.2 0 13.5 20.3 27.2 70.7 58.9 200.9
07/05 21:10 20.3 34 5.98 3.9 15 19 1016.1 0 13.8 20.5 27.6 72.0 60.5 206.5
07/05 21:00 20.2 35 6.12 4.3 11 17 1016 0 14.1 20.7 28.1 73.3 62.2 212.1
07/05 20:50 20.1 34 5.91 3.8 11 13 1016 0 13.6 20.4 27.5 71.6 59.9 204.2
07/05 20:40 20.3 35 6.16 4.4 7 9 1015.9 0 14.2 20.7 28.2 73.6 62.5 213.4
07/05 20:30 20.7 33 5.94 3.9 13 20 1015.7 0 13.7 20.3 27.4 71.3 59.8 203.9
07/05 20:20 20.5 35 6.23 4.5 11 15 1015.7 0 14.3 20.8 28.4 74.0 63.1 215.6
07/05 20:10 20.8 34 6.16 4.4 13 13 1015.6 0 14.1 20.6 28.1 73.1 62.1 212.1
07/05 20:00 20.3 40 7.03 6.3 9 13 1015.4 0 16.0 21.9 31.2 81.5 72.3 247.7

Last Refresh: 08-May-2026 12:07:19

Bureau of Meteorology